Time;durP1;ratioP1;P1;durP2;ratioP2;P2;SDS_P1;SDS_P2;PMS_P1;PMS_P2;Temp;Humidity;BMP_temperature;BMP_pressure;BME280_temperature;BME280_humidity;BME280_pressure;Samples;Min_cycle;Max_cycle;Signal;HPM_P1;HPM_P2
2023/09/15 00:01:32;;;;;;;0.20;0.20;;;;;;;11.02;78.88;98049.31;4949682;29;20487;-68
2023/09/15 00:04:03;;;;;;;0.28;0.28;;;;;;;11.10;78.57;98056.44;4954782;28;20550;-69
2023/09/15 00:06:31;;;;;;;0.20;0.20;;;;;;;11.18;78.16;98047.47;4950641;29;20487;-68
2023/09/15 00:09:00;;;;;;;0.22;0.22;;;;;;;11.21;77.72;98055.13;4954778;29;20074;-71
2023/09/15 00:11:39;;;;;;;0.22;0.22;;;;;;;11.12;77.85;98059.72;4949586;29;20053;-68
2023/09/15 00:14:10;;;;;;;0.13;0.13;;;;;;;11.02;78.48;98065.34;4953906;28;20503;-68
2023/09/15 00:16:39;;;;;;;0.10;0.10;;;;;;;11.06;78.16;98063.13;4954074;29;20039;-69
2023/09/15 00:19:13;;;;;;;0.20;0.20;;;;;;;10.99;77.97;98062.25;4951994;28;20050;-69
2023/09/15 00:21:41;;;;;;;0.17;0.17;;;;;;;10.89;78.48;98051.84;4951432;29;20510;-69
2023/09/15 00:24:10;;;;;;;0.32;0.32;;;;;;;10.93;78.64;98054.94;4947758;28;20047;-69
2023/09/15 00:26:38;;;;;;;0.10;0.10;;;;;;;10.96;78.32;98055.41;4954205;29;20043;-69
2023/09/15 00:29:07;;;;;;;0.28;0.28;;;;;;;10.82;78.66;98050.06;4950461;29;20125;-69
2023/09/15 00:31:36;;;;;;;0.13;0.13;;;;;;;10.75;79.38;98052.66;4952079;29;20110;-68
2023/09/15 00:34:04;;;;;;;0.15;0.15;;;;;;;10.76;78.96;98054.31;4940274;28;20491;-69
2023/09/15 00:36:32;;;;;;;0.20;0.20;;;;;;;10.71;79.52;98050.53;4951072;29;20596;-71
2023/09/15 00:39:01;;;;;;;0.25;0.25;;;;;;;10.62;79.45;98047.97;4934326;29;20055;-69
2023/09/15 00:41:30;;;;;;;0.15;0.15;;;;;;;10.54;80.07;98050.72;4952727;28;20054;-69
2023/09/15 00:43:58;;;;;;;0.15;0.15;;;;;;;10.43;80.57;98053.00;4954215;28;20055;-68
2023/09/15 00:46:26;;;;;;;0.30;0.30;;;;;;;10.32;81.21;98048.94;4949154;29;20098;-68
2023/09/15 00:48:55;;;;;;;0.15;0.15;;;;;;;10.30;81.13;98043.78;4952337;29;20037;-70
2023/09/15 00:51:23;;;;;;;0.10;0.10;;;;;;;10.31;81.56;98041.94;4954088;29;20047;-70
2023/09/15 00:53:51;;;;;;;0.13;0.13;;;;;;;10.34;80.95;98054.09;4937076;29;20499;-70
2023/09/15 00:56:19;;;;;;;0.13;0.13;;;;;;;10.33;80.98;98045.25;4928167;29;20047;-71
2023/09/15 00:58:48;;;;;;;0.22;0.22;;;;;;;10.28;80.83;98045.78;4949381;28;20083;-70
2023/09/15 01:01:16;;;;;;;0.20;0.20;;;;;;;10.21;81.08;98050.22;4944651;29;20058;-70
2023/09/15 01:03:46;;;;;;;0.30;0.30;;;;;;;10.18;81.15;98049.72;4945916;28;20066;-69
2023/09/15 01:06:14;;;;;;;0.20;0.20;;;;;;;10.20;81.44;98042.38;4954648;28;20045;-70
2023/09/15 01:08:42;;;;;;;0.13;0.13;;;;;;;10.24;81.13;98049.84;4954224;29;20451;-70
2023/09/15 01:11:10;;;;;;;0.20;0.20;;;;;;;10.11;82.24;98044.28;4932849;29;20054;-70
2023/09/15 01:13:38;;;;;;;0.22;0.22;;;;;;;10.15;81.55;98037.56;4954094;28;20079;-69
2023/09/15 01:16:11;;;;;;;0.32;0.32;;;;;;;10.12;81.96;98026.44;4952308;29;20063;-70
2023/09/15 01:18:43;;;;;;;0.20;0.20;;;;;;;10.17;81.68;98034.72;4935514;29;20067;-71
2023/09/15 01:21:20;;;;;;;;;;;;;;;10.14;82.06;98032.41;4932873;29;20047;-70
2023/09/15 01:24:20;;;;;;;0.13;0.13;;;;;;;9.99;82.35;98035.03;4950831;28;19926;-70
2023/09/15 01:27:01;;;;;;;0.25;0.25;;;;;;;10.04;82.58;98027.34;4937764;29;20070;-71
2023/09/15 01:29:39;;;;;;;0.15;0.15;;;;;;;9.94;82.65;98027.59;4934753;29;20051;-71
2023/09/15 01:32:08;;;;;;;0.25;0.25;;;;;;;9.99;82.78;98026.22;4953712;29;20075;-70
2023/09/15 01:34:36;;;;;;;0.13;0.13;;;;;;;10.03;82.55;98033.69;4944375;28;20039;-69
2023/09/15 01:37:04;;;;;;;0.30;0.30;;;;;;;10.01;82.44;98032.19;4935477;29;20489;-72
2023/09/15 01:39:33;;;;;;;0.22;0.22;;;;;;;9.99;82.40;98032.38;4934675;28;20055;-70
2023/09/15 01:42:01;;;;;;;0.13;0.13;;;;;;;9.99;82.40;98018.22;4932707;28;20414;-70
2023/09/15 01:44:28;;;;;;;0.35;0.35;;;;;;;10.01;82.44;98024.19;4944616;28;20048;-69
2023/09/15 01:46:57;;;;;;;0.13;0.13;;;;;;;9.85;82.77;98023.34;4946852;28;20042;-70
2023/09/15 01:49:25;;;;;;;0.45;0.45;;;;;;;9.87;83.10;98031.13;4947798;29;20478;-70
2023/09/15 01:51:54;;;;;;;0.22;0.22;;;;;;;9.83;82.95;98029.84;4952776;29;20077;-70
2023/09/15 01:54:22;;;;;;;0.40;0.40;;;;;;;9.91;82.84;98035.13;4943239;29;20039;-69
2023/09/15 01:56:50;;;;;;;0.15;0.15;;;;;;;9.89;82.81;98029.13;4949918;29;20045;-69
2023/09/15 01:59:17;;;;;;;0.20;0.20;;;;;;;9.88;82.64;98044.28;4934270;29;20058;-69
2023/09/15 02:01:45;;;;;;;0.13;0.13;;;;;;;9.88;82.92;98046.13;4936132;29;20055;-69
2023/09/15 02:04:14;;;;;;;0.30;0.30;;;;;;;9.88;83.21;98044.28;4928771;29;20043;-68
2023/09/15 02:06:42;;;;;;;0.13;0.13;;;;;;;9.94;82.75;98045.44;4942332;28;20039;-68
2023/09/15 02:09:10;;;;;;;0.25;0.25;;;;;;;9.91;82.50;98049.28;4945529;29;20118;-67
2023/09/15 02:11:37;;;;;;;0.13;0.13;;;;;;;9.85;82.59;98042.00;4951966;28;20043;-68
2023/09/15 02:14:05;;;;;;;0.20;0.20;;;;;;;9.71;82.54;98036.59;4933613;29;20043;-67
2023/09/15 02:16:33;;;;;;;0.17;0.17;;;;;;;9.77;82.63;98041.22;4950465;29;20050;-68
2023/09/15 02:19:01;;;;;;;0.32;0.32;;;;;;;9.78;82.54;98042.88;4952540;28;20047;-68
2023/09/15 02:21:30;;;;;;;0.22;0.22;;;;;;;9.70;82.62;98038.44;4949001;29;20051;-68
2023/09/15 02:23:59;;;;;;;0.20;0.20;;;;;;;9.65;82.90;98043.50;4935293;29;20122;-68
2023/09/15 02:26:27;;;;;;;0.13;0.13;;;;;;;9.62;82.64;98038.50;4952949;29;20126;-69
2023/09/15 02:28:54;;;;;;;0.22;0.22;;;;;;;9.62;82.69;98037.69;4952492;29;20039;-69
2023/09/15 02:31:22;;;;;;;0.32;0.32;;;;;;;9.60;82.52;98042.34;4952422;29;20049;-69
2023/09/15 02:33:50;;;;;;;0.10;0.10;;;;;;;9.50;83.01;98043.41;4952335;28;20098;-69
2023/09/15 02:36:17;;;;;;;0.25;0.25;;;;;;;9.46;83.78;98043.94;4951452;29;20157;-69
2023/09/15 02:38:46;;;;;;;0.25;0.25;;;;;;;9.45;83.81;98037.78;4935606;29;20051;-68
2023/09/15 02:41:14;;;;;;;0.28;0.28;;;;;;;9.46;83.93;98039.44;4947518;28;20055;-68
2023/09/15 02:43:42;;;;;;;0.13;0.13;;;;;;;9.48;84.07;98040.09;4962285;28;20398;-68
2023/09/15 02:46:10;;;;;;;0.32;0.32;;;;;;;9.46;84.41;98036.78;4950657;28;20181;-68
2023/09/15 02:48:38;;;;;;;0.50;0.32;;;;;;;9.39;84.59;98032.34;4952639;29;20110;-68
2023/09/15 02:51:05;;;;;;;0.40;0.32;;;;;;;9.26;84.64;98037.41;4951333;29;20413;-68
2023/09/15 02:53:33;;;;;;;0.20;0.20;;;;;;;9.25;85.49;98033.06;4944532;29;20047;-69
2023/09/15 02:56:04;;;;;;;0.25;0.25;;;;;;;9.25;85.74;98038.41;4935904;29;20054;-69
2023/09/15 02:58:36;;;;;;;0.30;0.22;;;;;;;9.25;85.64;98036.56;4934551;29;20047;-69
2023/09/15 03:01:12;;;;;;;0.13;0.13;;;;;;;9.29;85.54;98037.88;4933876;29;20062;-69
2023/09/15 03:03:42;;;;;;;0.10;0.10;;;;;;;9.34;85.13;98037.38;4935651;29;20043;-69
2023/09/15 03:06:11;;;;;;;0.13;0.13;;;;;;;9.42;85.05;98024.00;4955135;28;20500;-69
2023/09/15 03:08:39;;;;;;;0.30;0.30;;;;;;;9.46;84.56;98028.78;4935879;29;20570;-69
2023/09/15 03:11:14;;;;;;;0.17;0.17;;;;;;;9.40;84.77;98021.50;4929581;29;20130;-69
2023/09/15 03:13:42;;;;;;;0.20;0.20;;;;;;;9.41;84.80;98030.31;4932894;29;20078;-69
2023/09/15 03:16:11;;;;;;;0.22;0.22;;;;;;;9.40;84.45;98026.00;4936164;29;20050;-69
2023/09/15 03:18:42;;;;;;;0.32;0.32;;;;;;;9.41;84.41;98027.66;4951767;28;20082;-68
2023/09/15 03:21:10;;;;;;;0.40;0.40;;;;;;;9.48;84.20;98021.44;4934073;29;20035;-68
2023/09/15 03:23:38;;;;;;;0.40;0.40;;;;;;;9.44;84.04;98019.31;4928449;29;20044;-68
2023/09/15 03:26:06;;;;;;;0.28;0.25;;;;;;;9.22;85.03;98017.47;4931417;29;20075;-69
2023/09/15 03:28:39;;;;;;;0.40;0.40;;;;;;;9.30;84.69;98015.56;4932209;29;20130;-68
2023/09/15 03:31:08;;;;;;;0.30;0.30;;;;;;;9.25;84.90;98014.44;4949785;28;20047;-68
2023/09/15 03:33:37;;;;;;;0.20;0.20;;;;;;;9.23;84.97;98019.13;4939721;28;20050;-68
2023/09/15 03:36:06;;;;;;;0.32;0.32;;;;;;;9.37;84.92;98013.03;4949296;29;20473;-68
2023/09/15 03:38:34;;;;;;;0.32;0.32;;;;;;;9.39;84.39;98006.53;4952761;28;20114;-69
2023/09/15 03:41:02;;;;;;;0.30;0.30;;;;;;;9.37;84.52;98015.69;4933689;29;20083;-68
2023/09/15 03:43:33;;;;;;;0.20;0.20;;;;;;;9.39;84.06;98009.19;4947589;29;20049;-68
2023/09/15 03:46:03;;;;;;;0.28;0.28;;;;;;;9.32;84.29;98020.72;4945960;29;20059;-68
2023/09/15 03:48:32;;;;;;;0.28;0.28;;;;;;;9.24;84.73;98010.94;4949047;29;20093;-68
2023/09/15 03:51:00;;;;;;;0.38;0.38;;;;;;;9.20;84.44;98006.97;4928542;29;20305;-68
2023/09/15 03:53:28;;;;;;;0.32;0.32;;;;;;;9.19;84.59;98005.31;4953936;28;20094;-68
2023/09/15 03:55:55;;;;;;;0.20;0.20;;;;;;;9.06;84.67;97999.72;4947851;28;20123;-68
2023/09/15 03:58:23;;;;;;;0.20;0.13;;;;;;;9.18;84.27;98004.50;4934894;29;20043;-68
2023/09/15 04:00:51;;;;;;;0.28;0.28;;;;;;;9.36;83.66;98004.19;4933605;29;20055;-68
2023/09/15 04:03:21;;;;;;;0.22;0.22;;;;;;;9.17;84.34;98002.81;4933933;29;20039;-68
2023/09/15 04:05:49;;;;;;;0.32;0.32;;;;;;;8.83;84.66;98008.50;4927751;29;20415;-69
2023/09/15 04:08:17;;;;;;;0.28;0.28;;;;;;;9.07;85.07;97996.06;4945385;29;20039;-68
2023/09/15 04:10:44;;;;;;;0.35;0.35;;;;;;;9.22;84.66;98004.16;4946321;28;20118;-68
2023/09/15 04:13:12;;;;;;;0.45;0.45;;;;;;;9.31;84.15;98005.75;4947333;29;20051;-68
2023/09/15 04:15:40;;;;;;;0.20;0.20;;;;;;;9.10;84.68;98007.22;4944102;28;20522;-68
2023/09/15 04:18:08;;;;;;;0.40;0.40;;;;;;;8.89;85.25;98004.31;4949721;28;20036;-69
2023/09/15 04:20:38;;;;;;;0.20;0.20;;;;;;;8.91;85.95;98004.97;4947770;28;20493;-69
2023/09/15 04:23:14;;;;;;;0.20;0.20;;;;;;;8.78;85.97;98000.22;4950579;28;20035;-68
2023/09/15 04:25:43;;;;;;;0.25;0.25;;;;;;;8.86;86.40;97995.84;4931286;29;20043;-68
2023/09/15 04:28:12;;;;;;;0.28;0.28;;;;;;;9.08;85.59;98001.22;4947574;28;20051;-69
2023/09/15 04:30:43;;;;;;;0.30;0.30;;;;;;;9.18;85.16;98001.00;4933204;29;20043;-68
2023/09/15 04:33:12;;;;;;;0.30;0.30;;;;;;;9.10;84.86;97998.38;4932940;28;20408;-68
2023/09/15 04:35:41;;;;;;;0.25;0.25;;;;;;;9.22;84.46;97994.31;4939372;29;20130;-69
2023/09/15 04:38:09;;;;;;;0.30;0.30;;;;;;;9.11;84.55;97997.38;4952203;29;20085;-69
2023/09/15 04:40:36;;;;;;;0.30;0.30;;;;;;;8.94;84.85;98009.94;4953394;29;20039;-68
2023/09/15 04:43:05;;;;;;;0.32;0.32;;;;;;;8.87;85.14;98008.97;4933506;28;20043;-68
2023/09/15 04:45:34;;;;;;;0.32;0.32;;;;;;;8.98;84.87;98013.94;4948357;28;20113;-68
2023/09/15 04:48:05;;;;;;;0.22;0.22;;;;;;;9.22;84.31;98012.97;4938348;29;20050;-68
2023/09/15 04:50:36;;;;;;;0.22;0.22;;;;;;;9.28;83.66;98016.75;4933043;28;20138;-68
2023/09/15 04:53:07;;;;;;;0.17;0.17;;;;;;;9.01;84.31;98012.75;4955422;28;20496;-68
2023/09/15 04:55:35;;;;;;;0.25;0.25;;;;;;;8.94;84.35;98012.59;4937555;29;20071;-68
2023/09/15 04:58:04;;;;;;;0.20;0.20;;;;;;;9.04;84.31;98018.53;4938266;28;20050;-68
2023/09/15 05:00:35;;;;;;;0.22;0.22;;;;;;;9.29;83.30;98021.91;4935593;29;21073;-68
2023/09/15 05:03:04;;;;;;;0.10;0.10;;;;;;;9.20;83.08;98014.97;4931764;29;20043;-68
2023/09/15 05:05:32;;;;;;;0.20;0.20;;;;;;;9.18;83.50;98009.81;4936421;29;20050;-68
2023/09/15 05:07:59;;;;;;;0.30;0.30;;;;;;;9.18;83.38;98019.63;4947344;29;20048;-69
2023/09/15 05:10:29;;;;;;;0.28;0.28;;;;;;;9.30;82.77;98012.09;4930797;29;20131;-68
2023/09/15 05:12:58;;;;;;;0.13;0.13;;;;;;;9.20;82.48;98012.31;4947710;28;20052;-68
2023/09/15 05:15:27;;;;;;;0.30;0.30;;;;;;;9.11;82.41;98018.69;4936109;29;20043;-68
2023/09/15 05:17:55;;;;;;;0.20;0.20;;;;;;;9.11;82.83;98016.03;4931102;29;20106;-71
2023/09/15 05:20:23;;;;;;;0.10;0.10;;;;;;;9.12;82.59;98017.69;4937030;29;20599;-69
2023/09/15 05:22:51;;;;;;;0.13;0.13;;;;;;;9.04;82.37;98018.53;4927856;29;20650;-69
2023/09/15 05:25:18;;;;;;;0.25;0.25;;;;;;;8.96;82.46;98010.59;4951306;29;20035;-69
2023/09/15 05:27:47;;;;;;;0.20;0.20;;;;;;;8.93;82.40;98015.47;4938070;29;20045;-68
2023/09/15 05:30:16;;;;;;;0.30;0.30;;;;;;;8.89;82.60;98006.16;4954909;28;20039;-68
2023/09/15 05:32:43;;;;;;;0.28;0.28;;;;;;;8.87;82.72;98010.81;4935510;29;20047;-68
2023/09/15 05:35:11;;;;;;;0.13;0.13;;;;;;;8.89;83.12;98014.13;4950478;29;20054;-68
2023/09/15 05:37:39;;;;;;;0.13;0.13;;;;;;;8.91;82.79;98004.97;4938040;29;20040;-69
2023/09/15 05:40:09;;;;;;;0.22;0.22;;;;;;;8.96;82.36;98010.59;4936399;29;20044;-69
2023/09/15 05:42:37;;;;;;;0.10;0.10;;;;;;;8.98;82.46;98013.94;4933861;29;20118;-68
2023/09/15 05:45:08;;;;;;;0.10;0.10;;;;;;;9.02;82.23;98009.09;4954517;28;20616;-68
2023/09/15 05:47:35;;;;;;;0.20;0.20;;;;;;;8.97;82.25;98014.91;4951512;29;20054;-68
2023/09/15 05:50:04;;;;;;;0.13;0.13;;;;;;;8.91;82.18;98022.78;4955447;29;20462;-69
2023/09/15 05:52:32;;;;;;;0.30;0.30;;;;;;;8.94;82.75;98017.94;4949824;28;20058;-68
2023/09/15 05:55:00;;;;;;;0.20;0.20;;;;;;;9.01;82.79;98007.44;4953556;29;20055;-69
2023/09/15 05:57:28;;;;;;;0.13;0.13;;;;;;;8.89;83.20;98012.31;4949357;29;20074;-70
2023/09/15 05:59:55;;;;;;;0.22;0.22;;;;;;;8.96;82.98;98017.75;4950823;29;20495;-69
2023/09/15 06:02:24;;;;;;;0.25;0.25;;;;;;;8.95;83.49;98018.75;4950540;29;20047;-69
2023/09/15 06:04:53;;;;;;;0.17;0.17;;;;;;;8.91;84.13;98020.13;4953633;28;20063;-68
2023/09/15 06:07:21;;;;;;;0.25;0.25;;;;;;;9.00;84.03;98011.94;4949485;29;20043;-69
2023/09/15 06:09:49;;;;;;;0.25;0.25;;;;;;;9.11;83.38;98013.38;4949938;29;20031;-68
2023/09/15 06:12:16;;;;;;;0.10;0.10;;;;;;;9.24;82.98;98010.13;4951060;29;20593;-69
2023/09/15 06:14:45;;;;;;;0.35;0.35;;;;;;;9.41;82.67;98011.69;4951725;28;20035;-69
2023/09/15 06:17:13;;;;;;;0.20;0.20;;;;;;;9.55;81.99;98016.25;4948313;28;20151;-69
2023/09/15 06:19:42;;;;;;;0.32;0.32;;;;;;;9.66;81.92;98013.16;4954453;28;20035;-69
2023/09/15 06:22:10;;;;;;;0.22;0.22;;;;;;;9.70;81.33;98017.13;4949418;29;20491;-69
2023/09/15 06:24:37;;;;;;;0.30;0.30;;;;;;;9.63;81.55;98018.03;4951246;28;20051;-69
2023/09/15 06:27:05;;;;;;;0.20;0.20;;;;;;;9.72;81.66;98015.13;4951043;29;20061;-69
2023/09/15 06:29:33;;;;;;;0.32;0.32;;;;;;;9.79;81.31;98008.06;4948343;28;20039;-70
2023/09/15 06:32:01;;;;;;;0.25;0.25;;;;;;;9.86;81.84;98008.19;4952942;29;20048;-69
2023/09/15 06:34:29;;;;;;;0.22;0.22;;;;;;;9.87;81.48;98010.63;4951860;29;20043;-70
2023/09/15 06:36:58;;;;;;;0.13;0.13;;;;;;;10.01;81.18;98000.19;4952286;29;20083;-69
2023/09/15 06:39:26;;;;;;;0.22;0.22;;;;;;;10.17;80.86;98000.06;4945110;29;20043;-70
2023/09/15 06:41:54;;;;;;;0.22;0.22;;;;;;;10.28;80.21;98007.63;4958926;28;20047;-70
2023/09/15 06:44:23;;;;;;;0.22;0.22;;;;;;;10.32;80.56;98003.59;4948954;28;20051;-70
2023/09/15 06:46:51;;;;;;;0.22;0.22;;;;;;;10.43;80.50;98005.81;4955042;28;20050;-70
2023/09/15 06:49:21;;;;;;;0.38;0.38;;;;;;;10.46;80.01;98004.63;4953282;28;20452;-70
2023/09/15 06:51:49;;;;;;;0.13;0.13;;;;;;;10.50;79.91;98017.38;4946587;29;20040;-69
2023/09/15 06:54:18;;;;;;;0.30;0.30;;;;;;;10.51;79.64;98000.38;4947758;28;20043;-70
2023/09/15 06:56:46;;;;;;;0.30;0.30;;;;;;;10.58;79.27;98014.66;4950611;28;20054;-70
2023/09/15 06:59:14;;;;;;;0.22;0.22;;;;;;;10.68;79.68;98003.69;4946832;28;20035;-70
2023/09/15 07:01:41;;;;;;;0.43;0.43;;;;;;;10.70;79.40;98006.97;4949422;29;20443;-69
2023/09/15 07:04:12;;;;;;;0.30;0.30;;;;;;;10.75;79.41;98009.94;4945470;28;20068;-70
2023/09/15 07:06:41;;;;;;;0.20;0.20;;;;;;;10.77;79.45;98007.91;4939683;29;20066;-70
2023/09/15 07:09:09;;;;;;;0.10;0.10;;;;;;;10.86;79.18;98003.31;4943168;28;20040;-70
2023/09/15 07:11:38;;;;;;;0.20;0.20;;;;;;;10.94;79.35;98001.34;4951191;28;20491;-70
2023/09/15 07:14:05;;;;;;;0.30;0.30;;;;;;;11.08;79.21;97999.69;4952283;28;20047;-70
2023/09/15 07:16:34;;;;;;;0.10;0.10;;;;;;;11.30;78.42;97998.69;4945880;29;20420;-70
2023/09/15 07:19:02;;;;;;;0.22;0.22;;;;;;;11.37;78.80;97998.75;4945675;29;20078;-70
2023/09/15 07:21:29;;;;;;;0.10;0.10;;;;;;;11.53;78.89;97998.50;4948906;29;20593;-70
2023/09/15 07:23:59;;;;;;;0.20;0.20;;;;;;;11.62;77.84;98001.91;4942077;29;20635;-69
2023/09/15 07:26:28;;;;;;;0.28;0.28;;;;;;;11.72;77.34;97987.19;4941879;29;20047;-70
2023/09/15 07:28:57;;;;;;;0.32;0.32;;;;;;;11.83;77.36;97985.88;4944663;29;20051;-70
2023/09/15 07:31:27;;;;;;;0.32;0.32;;;;;;;11.87;77.04;97997.81;4945188;29;20043;-70
2023/09/15 07:33:55;;;;;;;0.10;0.10;;;;;;;11.96;77.06;97988.63;4948853;29;20075;-70
2023/09/15 07:36:23;;;;;;;0.35;0.35;;;;;;;12.10;76.85;97984.22;4942026;29;20051;-70
2023/09/15 07:38:50;;;;;;;0.13;0.13;;;;;;;12.21;76.40;97983.69;4948302;29;20051;-70
2023/09/15 07:41:18;;;;;;;0.13;0.13;;;;;;;12.29;75.80;97988.06;4948993;29;20102;-70
2023/09/15 07:43:46;;;;;;;0.22;0.22;;;;;;;12.40;75.67;97985.69;4953576;28;20051;-70
2023/09/15 07:46:15;;;;;;;0.10;0.10;;;;;;;12.53;75.87;97990.28;4951380;28;20043;-70
2023/09/15 07:48:44;;;;;;;0.30;0.30;;;;;;;12.57;75.14;97990.69;4953458;29;20522;-70
2023/09/15 07:51:13;;;;;;;0.30;0.30;;;;;;;12.64;75.25;97984.38;4949549;29;20416;-69
2023/09/15 07:53:41;;;;;;;0.22;0.22;;;;;;;12.80;75.01;97986.72;4949933;28;20082;-69
2023/09/15 07:56:09;;;;;;;0.25;0.25;;;;;;;12.89;74.37;97979.31;4955698;28;20078;-70
2023/09/15 07:58:36;;;;;;;0.20;0.20;;;;;;;13.02;73.99;97973.19;4947683;28;20051;-70
2023/09/15 08:01:05;;;;;;;0.13;0.13;;;;;;;13.11;74.74;97986.22;4948554;29;20051;-70
2023/09/15 08:03:35;;;;;;;0.22;0.22;;;;;;;13.15;74.27;97984.84;4951804;29;20407;-70
2023/09/15 08:06:03;;;;;;;0.13;0.13;;;;;;;13.27;74.00;97984.25;4947585;29;20059;-70
2023/09/15 08:08:31;;;;;;;0.13;0.13;;;;;;;13.39;73.92;97983.44;4941904;28;20511;-70
2023/09/15 08:10:58;;;;;;;0.13;0.13;;;;;;;13.47;74.16;97975.22;4949443;29;20083;-69
2023/09/15 08:13:27;;;;;;;0.08;0.08;;;;;;;13.59;73.22;97967.41;4959630;28;20674;-70
2023/09/15 08:15:54;;;;;;;0.30;0.30;;;;;;;13.70;73.38;97972.19;4949864;29;20136;-69
2023/09/15 08:18:23;;;;;;;0.20;0.20;;;;;;;13.83;73.06;97974.84;4953569;28;20047;-69
2023/09/15 08:20:52;;;;;;;0.30;0.30;;;;;;;13.99;72.39;97978.16;4954531;29;20050;-71
2023/09/15 08:23:20;;;;;;;0.20;0.20;;;;;;;14.10;72.11;97973.00;4955000;28;20511;-69
2023/09/15 08:25:48;;;;;;;0.13;0.13;;;;;;;14.22;71.72;97973.19;4956094;29;20091;-69
2023/09/15 08:28:17;;;;;;;0.22;0.22;;;;;;;14.33;71.35;97972.53;4963015;28;20047;-68
2023/09/15 08:30:46;;;;;;;0.20;0.20;;;;;;;14.45;71.24;97973.59;4945433;29;20066;-69
2023/09/15 08:33:14;;;;;;;0.10;0.10;;;;;;;14.57;70.84;97976.47;4960891;28;20039;-69
2023/09/15 08:35:43;;;;;;;0.20;0.20;;;;;;;14.67;71.02;97974.16;4954559;29;20062;-69
2023/09/15 08:38:13;;;;;;;0.13;0.13;;;;;;;14.79;70.95;97972.47;4953092;29;20051;-69
2023/09/15 08:40:47;;;;;;;0.35;0.35;;;;;;;14.90;70.65;97977.19;4953837;28;20050;-69
2023/09/15 08:43:16;;;;;;;0.17;0.17;;;;;;;15.02;71.31;97962.06;4952305;28;20067;-69
2023/09/15 08:45:45;;;;;;;0.10;0.10;;;;;;;15.18;71.62;97954.50;4950240;28;20569;-69
2023/09/15 08:48:18;;;;;;;0.17;0.17;;;;;;;15.34;71.01;97960.22;4949159;29;20130;-69
2023/09/15 08:50:46;;;;;;;0.13;0.13;;;;;;;15.50;71.16;97956.19;4958050;28;20070;-69
2023/09/15 08:53:16;;;;;;;0.20;0.20;;;;;;;15.63;70.84;97963.38;4952709;28;20090;-70
2023/09/15 08:55:43;;;;;;;0.22;0.22;;;;;;;15.76;71.34;97953.34;4957671;28;20042;-69
2023/09/15 08:58:12;;;;;;;0.13;0.13;;;;;;;15.92;70.78;97943.91;4951201;29;20411;-70
2023/09/15 09:00:40;;;;;;;0.15;0.15;;;;;;;16.12;71.01;97941.84;4957449;28;20471;-70
2023/09/15 09:03:07;;;;;;;0.10;0.10;;;;;;;16.29;69.31;97935.91;4950125;28;20551;-69
2023/09/15 09:05:36;;;;;;;0.28;0.28;;;;;;;16.44;69.25;97937.19;4953784;28;20122;-70
2023/09/15 09:08:04;;;;;;;0.08;0.08;;;;;;;16.57;67.42;97938.09;4949117;29;20058;-69
2023/09/15 09:10:33;;;;;;;0.17;0.17;;;;;;;16.70;68.39;97932.59;4962921;28;20130;-71
2023/09/15 09:13:01;;;;;;;0.05;0.05;;;;;;;16.80;67.63;97932.91;4945841;28;20048;-68
2023/09/15 09:15:33;;;;;;;0.20;0.20;;;;;;;16.91;68.46;97928.63;4946807;28;20043;-68
2023/09/15 09:18:01;;;;;;;0.15;0.15;;;;;;;16.98;66.83;97930.19;4955547;28;20490;-69
2023/09/15 09:20:29;;;;;;;0.22;0.22;;;;;;;17.07;67.28;97931.50;4954203;28;20032;-69
2023/09/15 09:22:56;;;;;;;0.13;0.13;;;;;;;17.15;66.45;97930.34;4952672;29;20050;-69
2023/09/15 09:25:28;;;;;;;0.13;0.13;;;;;;;17.19;65.44;97916.19;4953030;28;20051;-69
2023/09/15 09:27:57;;;;;;;;;;;;;;;17.26;65.25;97918.78;4954084;28;20047;-69
2023/09/15 09:30:29;;;;;;;0.13;0.13;;;;;;;17.32;66.22;97914.38;4956938;28;19929;-67
2023/09/15 09:32:57;;;;;;;0.13;0.13;;;;;;;17.38;66.77;97916.13;4957611;28;20051;-68
2023/09/15 09:35:25;;;;;;;0.13;0.13;;;;;;;17.44;66.32;97913.34;4954441;29;20410;-69
2023/09/15 09:37:53;;;;;;;0.30;0.30;;;;;;;17.49;65.87;97915.34;4954568;28;20472;-69
2023/09/15 09:40:22;;;;;;;0.20;0.20;;;;;;;17.56;65.20;97921.47;4949899;28;20044;-69
2023/09/15 09:42:50;;;;;;;0.03;0.03;;;;;;;17.66;64.96;97908.25;4948542;28;20055;-69
2023/09/15 09:45:25;;;;;;;0.45;0.45;;;;;;;17.76;65.11;97907.69;4954499;28;20043;-68
2023/09/15 09:47:53;;;;;;;0.17;0.17;;;;;;;17.84;64.54;97908.19;4946650;29;20387;-70
2023/09/15 09:50:21;;;;;;;0.22;0.22;;;;;;;17.97;64.48;97904.41;4947615;29;20051;-69
2023/09/15 09:52:51;;;;;;;0.15;0.15;;;;;;;18.11;63.66;97910.41;4948520;29;20048;-70
2023/09/15 09:55:18;;;;;;;0.20;0.20;;;;;;;18.20;62.24;97907.13;4953653;28;20499;-69
2023/09/15 09:57:46;;;;;;;0.03;0.03;;;;;;;18.20;62.23;97903.59;4946218;28;20047;-69
2023/09/15 10:00:18;;;;;;;0.20;0.20;;;;;;;18.26;62.07;97902.69;4950561;29;20044;-67
2023/09/15 10:02:49;;;;;;;0.10;0.10;;;;;;;18.39;61.51;97898.88;4947682;28;20040;-69
2023/09/15 10:05:17;;;;;;;0.03;0.03;;;;;;;18.56;60.84;97897.13;4945768;28;20518;-70
2023/09/15 10:07:47;;;;;;;0.20;0.20;;;;;;;18.73;60.56;97902.63;4942300;28;20547;-69
2023/09/15 10:10:14;;;;;;;0.13;0.13;;;;;;;18.77;60.58;97899.22;4951170;28;20043;-68
2023/09/15 10:12:42;;;;;;;0.10;0.10;;;;;;;18.85;61.40;97898.00;4950841;28;20114;-70
2023/09/15 10:15:11;;;;;;;0.10;0.10;;;;;;;19.00;59.41;97901.81;4947840;28;20054;-70
2023/09/15 10:17:39;;;;;;;0.10;0.10;;;;;;;19.17;58.17;97895.66;4955959;28;20118;-70
2023/09/15 10:20:09;;;;;;;0.15;0.15;;;;;;;19.32;57.26;97901.34;4950944;28;20048;-68
2023/09/15 10:22:38;;;;;;;0.10;0.10;;;;;;;19.54;56.80;97901.50;4951807;29;20138;-70
2023/09/15 10:25:07;;;;;;;0.03;0.03;;;;;;;19.65;57.63;97906.84;4952565;28;20043;-70
2023/09/15 10:27:35;;;;;;;0.13;0.13;;;;;;;19.67;56.57;97893.06;4950324;28;20491;-70
2023/09/15 10:30:04;;;;;;;0.13;0.13;;;;;;;19.71;58.19;97886.09;4947636;28;20508;-71
2023/09/15 10:32:35;;;;;;;0.20;0.20;;;;;;;19.98;55.66;97883.53;4941806;29;20043;-71
2023/09/15 10:35:04;;;;;;;0.13;0.13;;;;;;;20.23;54.73;97874.97;4957622;28;20043;-69
2023/09/15 10:37:36;;;;;;;0.10;0.10;;;;;;;20.77;53.05;97875.97;4950818;29;20462;-68
2023/09/15 10:40:05;;;;;;;0.10;0.10;;;;;;;21.08;52.37;97877.97;4948839;29;20043;-69
2023/09/15 10:42:34;;;;;;;0.10;0.10;;;;;;;21.09;53.34;97876.06;4951894;29;20097;-70
2023/09/15 10:45:10;;;;;;;0.13;0.13;;;;;;;21.08;53.43;97869.81;4954851;28;20051;-70
2023/09/15 10:47:37;;;;;;;0.13;0.13;;;;;;;21.17;51.83;97872.94;4947757;29;20157;-69
2023/09/15 10:50:07;;;;;;;0.10;0.10;;;;;;;21.56;51.21;97870.88;4945207;29;20044;-68
2023/09/15 10:52:38;;;;;;;0.10;0.10;;;;;;;21.80;50.09;97871.38;4949369;28;20031;-69
2023/09/15 10:55:07;;;;;;;0.10;0.10;;;;;;;22.06;49.12;97866.97;4947373;28;20094;-68
2023/09/15 10:57:35;;;;;;;0.03;0.03;;;;;;;22.28;49.29;97868.47;4950197;28;20039;-69
2023/09/15 11:00:08;;;;;;;0.10;0.10;;;;;;;22.48;47.41;97864.22;4950058;29;20043;-69
2023/09/15 11:02:36;;;;;;;;;;;;;;;22.58;47.59;97865.09;4950678;28;20043;-67
2023/09/15 11:05:05;;;;;;;0.13;0.13;;;;;;;22.76;47.03;97854.84;4949153;28;19922;-69
2023/09/15 11:07:34;;;;;;;0.00;0.00;;;;;;;23.02;46.83;97857.41;4955871;28;20051;-68
2023/09/15 11:10:06;;;;;;;0.00;0.00;;;;;;;23.10;46.29;97863.41;4946672;29;20054;-70
2023/09/15 11:12:36;;;;;;;0.03;0.03;;;;;;;23.16;45.72;97863.13;4940081;29;20043;-69
2023/09/15 11:15:05;;;;;;;0.13;0.13;;;;;;;23.41;46.03;97857.75;4954619;28;20469;-69
2023/09/15 11:17:33;;;;;;;0.08;0.08;;;;;;;23.54;45.38;97861.88;4945647;28;20046;-69
2023/09/15 11:20:05;;;;;;;0.00;0.00;;;;;;;23.54;46.01;97856.44;4950101;28;20130;-69
2023/09/15 11:22:33;;;;;;;0.13;0.13;;;;;;;23.76;44.75;97846.09;4955987;28;20110;-69
2023/09/15 11:25:02;;;;;;;0.10;0.10;;;;;;;23.97;44.35;97843.34;4953987;28;20056;-69
2023/09/15 11:27:47;;;;;;;0.05;0.05;;;;;;;24.10;43.62;97842.75;4945666;29;20419;-69
2023/09/15 11:30:15;;;;;;;0.00;0.00;;;;;;;24.10;43.56;97838.13;4952339;29;20410;-68
2023/09/15 11:32:42;;;;;;;0.10;0.10;;;;;;;24.34;42.91;97832.94;4952302;28;20043;-67
2023/09/15 11:35:12;;;;;;;0.00;0.00;;;;;;;24.33;42.23;97828.56;4949401;28;20126;-68
2023/09/15 11:37:41;;;;;;;0.03;0.03;;;;;;;24.29;42.36;97832.13;4955500;28;20126;-69
2023/09/15 11:40:09;;;;;;;0.00;0.00;;;;;;;24.50;42.12;97834.50;4948987;29;20040;-69
2023/09/15 11:42:37;;;;;;;0.00;0.00;;;;;;;24.79;40.59;97825.66;4945699;29;20058;-68
2023/09/15 11:45:07;;;;;;;0.03;0.03;;;;;;;24.83;41.41;97827.53;4952008;28;20036;-68